Freeburn, Kentucky
Current Conditions -  °F | °C
As of 3:55 PM on Thursday 18 Dec 2014 (Local Time) from KPBX Reporting Station
Overcast Overcast  
Wind Chill: 26°   Ceiling: 7500
Heat Index: 34°   Visibility: 10mi
Dew Point: 25°   Wind: 10mph
Humidity: 70%   Direction: 320°NW
Pressure: 30.17"   Gusts: NA
Location:  37.56°N, 82.14°W
Report Text: KPBX 182055Z AUTO 32009KT 10SM BKN075 OVC080 01/M04 A3017 RMK AO2 T00101040
Loading
Personal Weather Stations






























Interactive Weather Map New forecast layout! Learn more

10-Day Weather Forecast

Advertisements
Track Severe Weather on mobile